createdAt,value
2023-02-09T00:01:13.922Z,42.57
2023-02-09T00:03:42.804Z,41.60
2023-02-09T00:06:13.649Z,42.30
2023-02-09T00:08:41.500Z,37.67
2023-02-09T00:11:20.175Z,42.30
2023-02-09T00:13:47.457Z,45.20
2023-02-09T00:16:14.467Z,53.43
2023-02-09T00:18:41.717Z,56.13
2023-02-09T00:21:10.959Z,56.93
2023-02-09T00:23:40.838Z,62.50
2023-02-09T00:26:11.823Z,50.60
2023-02-09T00:28:39.146Z,55.83
2023-02-09T00:31:08.220Z,51.50
2023-02-09T00:33:36.521Z,48.60
2023-02-09T00:36:05.673Z,50.90
2023-02-09T00:38:33.644Z,55.07
2023-02-09T00:41:00.658Z,52.57
2023-02-09T00:43:28.142Z,50.43
2023-02-09T00:45:55.218Z,55.93
2023-02-09T00:48:22.805Z,53.93
2023-02-09T00:50:53.428Z,49.07
2023-02-09T00:53:21.910Z,49.43
2023-02-09T00:55:49.352Z,45.40
2023-02-09T00:58:17.488Z,45.20
2023-02-09T01:00:44.875Z,50.83
2023-02-09T01:03:12.548Z,43.70
2023-02-09T01:05:41.343Z,43.93
2023-02-09T01:08:09.193Z,48.20
2023-02-09T01:10:37.846Z,48.83
2023-02-09T01:13:05.190Z,47.93
2023-02-09T01:15:32.320Z,48.10
2023-02-09T01:18:00.243Z,47.43
2023-02-09T01:20:27.665Z,50.60
2023-02-09T01:22:55.070Z,56.87
2023-02-09T01:25:22.040Z,41.67
2023-02-09T01:27:49.421Z,40.77
2023-02-09T01:30:17.115Z,50.53
2023-02-09T01:32:44.411Z,48.70
2023-02-09T01:35:11.650Z,43.60
2023-02-09T01:37:38.939Z,54.70
2023-02-09T01:40:06.477Z,42.63
2023-02-09T01:42:33.836Z,43.23
2023-02-09T01:45:18.781Z,47.93
2023-02-09T01:47:50.785Z,42.23
2023-02-09T01:50:18.501Z,35.47
2023-02-09T01:52:48.193Z,38.40
2023-02-09T01:55:19.922Z,41.97
2023-02-09T01:57:54.255Z,44.93
2023-02-09T02:00:22.722Z,45.27
2023-02-09T02:02:56.143Z,39.53
2023-02-09T02:05:25.194Z,41.67
2023-02-09T02:08:03.492Z,47.20
2023-02-09T02:10:31.429Z,60.60
2023-02-09T02:12:58.758Z,43.57
2023-02-09T02:15:30.033Z,45.67
2023-02-09T02:18:03.243Z,42.13
2023-02-09T02:20:39.089Z,36.90
2023-02-09T02:23:09.058Z,37.87
2023-02-09T02:26:04.145Z,44.07
2023-02-09T02:28:51.480Z,47.43
2023-02-09T02:31:56.179Z,36.00
2023-02-09T02:34:41.817Z,53.13
2023-02-09T02:37:18.400Z,41.17
2023-02-09T02:39:51.518Z,36.27
2023-02-09T02:43:02.893Z,50.87
2023-02-09T02:45:42.136Z,48.40
2023-02-09T02:48:46.915Z,42.93
2023-02-09T02:51:35.417Z,43.30
2023-02-09T02:54:10.625Z,39.87
2023-02-09T02:56:42.793Z,50.30
2023-02-09T02:59:14.052Z,43.23
2023-02-09T03:01:49.578Z,51.00
2023-02-09T03:04:17.285Z,49.30
2023-02-09T03:06:44.564Z,34.47
2023-02-09T03:09:12.082Z,45.23
2023-02-09T03:11:46.348Z,46.03
2023-02-09T03:14:28.014Z,44.53
2023-02-09T03:17:00.713Z,43.40
2023-02-09T03:19:30.479Z,41.07
2023-02-09T03:22:06.171Z,42.27
2023-02-09T03:25:11.690Z,41.83
2023-02-09T03:27:52.963Z,44.93
2023-02-09T03:30:21.912Z,55.17
2023-02-09T03:32:49.291Z,44.90
2023-02-09T03:35:19.311Z,48.43
2023-02-09T03:37:46.582Z,40.43
2023-02-09T03:40:13.734Z,46.70
2023-02-09T03:42:40.995Z,42.57
2023-02-09T03:45:08.965Z,45.13
2023-02-09T03:47:36.252Z,48.67
2023-02-09T03:50:04.155Z,52.13
2023-02-09T03:52:31.691Z,39.13
2023-02-09T03:54:58.747Z,44.97
2023-02-09T03:57:26.032Z,40.67
2023-02-09T03:59:53.064Z,43.63
2023-02-09T04:02:20.341Z,44.50
2023-02-09T04:04:47.325Z,49.63
2023-02-09T04:07:14.781Z,40.93
2023-02-09T04:09:41.691Z,42.93
2023-02-09T04:12:08.960Z,43.30
2023-02-09T04:14:35.957Z,39.20
2023-02-09T04:17:03.368Z,40.50
2023-02-09T04:19:30.284Z,45.27
2023-02-09T04:21:57.569Z,40.27
2023-02-09T04:24:24.584Z,53.17
2023-02-09T04:26:51.916Z,42.33
2023-02-09T04:29:18.876Z,40.87
2023-02-09T04:31:46.198Z,45.07
2023-02-09T04:34:13.188Z,49.47
2023-02-09T04:36:40.542Z,46.20
2023-02-09T04:39:07.544Z,42.33
2023-02-09T04:41:34.861Z,46.07
2023-02-09T04:44:01.804Z,44.90
2023-02-09T04:46:29.088Z,45.53
2023-02-09T04:48:56.075Z,49.13
2023-02-09T04:51:23.587Z,41.90
2023-02-09T04:53:50.533Z,47.70
2023-02-09T04:56:18.347Z,40.40
2023-02-09T04:59:04.011Z,45.27
2023-02-09T05:01:32.247Z,46.63
2023-02-09T05:03:59.332Z,42.67
2023-02-09T05:06:26.782Z,43.33
2023-02-09T05:08:53.725Z,41.67
2023-02-09T05:11:21.004Z,42.50
2023-02-09T05:13:48.844Z,48.73
2023-02-09T05:16:17.806Z,47.00
2023-02-09T05:18:45.489Z,46.07
2023-02-09T05:21:14.410Z,41.90
2023-02-09T05:23:41.801Z,49.37
2023-02-09T05:26:09.185Z,41.33
2023-02-09T05:28:36.452Z,43.73
2023-02-09T05:31:04.025Z,40.63
2023-02-09T05:33:31.108Z,46.20
2023-02-09T05:35:58.368Z,50.27
2023-02-09T05:38:25.655Z,50.20
2023-02-09T05:40:52.907Z,43.90
2023-02-09T05:43:19.931Z,39.67
2023-02-09T05:45:47.192Z,35.90
2023-02-09T05:48:14.264Z,42.80
2023-02-09T05:50:41.581Z,47.07
2023-02-09T05:53:09.275Z,42.37
2023-02-09T05:55:36.639Z,41.60
2023-02-09T05:58:04.147Z,39.77
2023-02-09T06:00:31.360Z,42.90
2023-02-09T06:02:58.933Z,40.70
2023-02-09T06:05:27.249Z,38.70
2023-02-09T06:07:54.499Z,37.57
2023-02-09T06:10:22.083Z,44.17
2023-02-09T06:12:49.064Z,47.27
2023-02-09T06:15:16.631Z,39.83
2023-02-09T06:17:43.946Z,39.50
2023-02-09T06:20:11.936Z,43.47
2023-02-09T06:22:38.976Z,45.13
2023-02-09T06:25:06.548Z,40.60
2023-02-09T06:27:33.563Z,36.10
2023-02-09T06:30:00.940Z,43.17
2023-02-09T06:32:28.004Z,46.47
2023-02-09T06:34:55.237Z,36.37
2023-02-09T06:37:22.300Z,39.57
2023-02-09T06:39:49.513Z,49.77
2023-02-09T06:42:16.523Z,41.77
2023-02-09T06:44:43.733Z,43.43
2023-02-09T06:47:10.706Z,51.33
2023-02-09T06:49:38.009Z,49.17
2023-02-09T06:52:05.349Z,45.37
2023-02-09T06:54:32.789Z,43.67
2023-02-09T06:57:00.013Z,48.83
2023-02-09T06:59:27.215Z,44.70
2023-02-09T07:01:55.097Z,46.60
2023-02-09T07:04:22.816Z,47.17
2023-02-09T07:06:49.923Z,45.33
2023-02-09T07:09:17.126Z,58.33
2023-02-09T07:11:44.163Z,58.60
2023-02-09T07:14:11.360Z,57.23
2023-02-09T07:16:38.302Z,47.63
2023-02-09T07:19:05.575Z,48.60
2023-02-09T07:21:32.530Z,46.17
2023-02-09T07:23:59.903Z,54.60
2023-02-09T07:26:26.926Z,48.73
2023-02-09T07:28:54.197Z,52.47
2023-02-09T07:31:21.535Z,57.00
2023-02-09T07:33:49.026Z,59.07
2023-02-09T07:36:18.182Z,52.87
2023-02-09T07:38:45.875Z,49.97
2023-02-09T07:41:19.581Z,44.50
2023-02-09T07:43:47.214Z,51.83
2023-02-09T07:46:16.735Z,43.83
2023-02-09T07:48:44.087Z,52.53
2023-02-09T07:51:20.012Z,47.10
2023-02-09T07:53:47.944Z,53.53
2023-02-09T07:56:14.946Z,45.30
2023-02-09T07:58:42.340Z,50.67
2023-02-09T08:01:11.819Z,44.90
2023-02-09T08:03:40.946Z,42.53
2023-02-09T08:06:19.560Z,57.37
2023-02-09T08:08:52.000Z,46.00
2023-02-09T08:11:29.206Z,47.57
2023-02-09T08:13:58.309Z,44.27
2023-02-09T08:16:29.656Z,50.83
2023-02-09T08:19:08.865Z,47.43
2023-02-09T08:21:39.980Z,52.07
2023-02-09T08:24:09.222Z,48.40
2023-02-09T08:26:36.420Z,44.70
2023-02-09T08:29:04.052Z,50.90
2023-02-09T08:31:31.255Z,52.23
2023-02-09T08:33:58.719Z,43.83
2023-02-09T08:36:26.081Z,50.53
2023-02-09T08:38:53.376Z,48.30
2023-02-09T08:41:20.880Z,53.43
2023-02-09T08:43:50.204Z,48.67
2023-02-09T08:46:18.199Z,53.33
2023-02-09T08:48:47.229Z,49.73
2023-02-09T08:51:15.535Z,51.37
2023-02-09T08:53:43.442Z,54.20
2023-02-09T08:56:10.660Z,48.17
2023-02-09T08:58:37.969Z,50.10
2023-02-09T09:01:05.627Z,49.80
2023-02-09T09:03:33.260Z,52.27
2023-02-09T09:06:06.192Z,56.47
2023-02-09T09:08:35.239Z,53.40
2023-02-09T09:11:02.725Z,50.07
2023-02-09T09:13:30.038Z,52.23
2023-02-09T09:15:57.047Z,56.63
2023-02-09T09:18:25.948Z,46.17
2023-02-09T09:20:56.172Z,49.67
2023-02-09T09:23:23.717Z,51.63
2023-02-09T09:25:50.873Z,64.33
2023-02-09T09:28:18.168Z,53.77
2023-02-09T09:30:45.328Z,57.33
2023-02-09T09:33:12.658Z,49.03
2023-02-09T09:35:39.892Z,55.97
2023-02-09T09:38:07.152Z,53.57
2023-02-09T09:40:37.082Z,48.57
2023-02-09T09:43:19.792Z,53.43
2023-02-09T09:45:48.179Z,47.53
2023-02-09T09:48:24.757Z,49.57
2023-02-09T09:50:58.745Z,50.67
2023-02-09T09:53:33.358Z,52.33
2023-02-09T09:56:07.754Z,49.93
2023-02-09T09:58:39.344Z,55.40
2023-02-09T10:01:10.395Z,56.27
2023-02-09T10:03:38.178Z,49.80
2023-02-09T10:06:20.696Z,62.03
2023-02-09T10:09:03.835Z,49.67
2023-02-09T10:11:41.422Z,54.53
2023-02-09T10:14:19.591Z,53.97
2023-02-09T10:16:46.648Z,45.67
2023-02-09T10:19:17.063Z,48.97
2023-02-09T10:21:44.251Z,46.37
2023-02-09T10:24:32.875Z,48.93
2023-02-09T10:27:05.178Z,49.27
2023-02-09T10:29:32.491Z,49.53
2023-02-09T10:32:26.854Z,50.40
2023-02-09T10:34:58.445Z,50.97
2023-02-09T10:37:39.956Z,50.83
2023-02-09T10:40:21.213Z,53.03
2023-02-09T10:42:59.446Z,47.67
2023-02-09T10:45:44.767Z,44.90
2023-02-09T10:48:11.885Z,43.53
2023-02-09T10:50:49.903Z,35.70
2023-02-09T10:53:24.738Z,35.97
2023-02-09T10:56:18.496Z,37.30
2023-02-09T10:58:51.785Z,27.13
2023-02-09T11:01:31.024Z,37.13
2023-02-09T11:04:07.201Z,33.90
2023-02-09T11:06:58.486Z,34.30
2023-02-09T11:09:30.491Z,44.67
2023-02-09T11:11:58.099Z,32.83
2023-02-09T11:14:25.472Z,31.23
2023-02-09T11:17:45.899Z,31.50
2023-02-09T11:20:23.432Z,31.60
2023-02-09T11:23:16.746Z,28.23
2023-02-09T11:25:43.950Z,37.57
2023-02-09T11:28:51.852Z,38.90
2023-02-09T11:31:34.226Z,41.83
2023-02-09T11:34:13.613Z,35.60
2023-02-09T11:36:43.834Z,33.50
2023-02-09T11:39:16.966Z,34.30
2023-02-09T11:42:14.602Z,32.50
2023-02-09T11:45:06.738Z,38.67
2023-02-09T11:47:50.487Z,35.37
2023-02-09T11:50:25.136Z,36.03
2023-02-09T11:52:59.990Z,32.17
2023-02-09T11:55:33.297Z,30.90
2023-02-09T11:58:10.853Z,29.73
2023-02-09T12:01:20.612Z,37.57
2023-02-09T12:04:20.549Z,30.33
2023-02-09T12:06:54.973Z,28.90
2023-02-09T12:10:13.110Z,30.93
2023-02-09T12:12:46.052Z,25.97
2023-02-09T12:15:18.143Z,27.80
2023-02-09T12:17:56.343Z,21.40
2023-02-09T12:20:31.727Z,25.60
2023-02-09T12:23:04.493Z,27.13
2023-02-09T12:25:34.444Z,28.30
2023-02-09T12:28:33.959Z,25.63
2023-02-09T12:31:02.579Z,27.23
2023-02-09T12:33:34.252Z,26.20
2023-02-09T12:36:10.955Z,25.87
2023-02-09T12:39:04.762Z,28.90
2023-02-09T12:41:35.883Z,23.47
2023-02-09T12:44:18.618Z,25.80
2023-02-09T12:46:48.597Z,26.53
2023-02-09T12:49:32.084Z,20.33
2023-02-09T12:53:05.648Z,23.67
2023-02-09T12:55:33.186Z,22.03
2023-02-09T12:58:00.474Z,22.00
2023-02-09T13:00:34.251Z,24.33
2023-02-09T13:03:10.982Z,27.43
2023-02-09T13:05:44.717Z,22.47
2023-02-09T13:08:19.269Z,18.10
2023-02-09T13:10:57.748Z,20.30
2023-02-09T13:13:39.592Z,23.83
2023-02-09T13:16:29.644Z,20.20
2023-02-09T13:19:21.025Z,25.97
2023-02-09T13:22:06.624Z,20.13
2023-02-09T13:24:33.894Z,19.17
2023-02-09T13:27:01.232Z,21.70
2023-02-09T13:29:32.652Z,24.33
2023-02-09T13:32:17.953Z,19.60
2023-02-09T13:34:55.719Z,20.67
2023-02-09T13:37:40.990Z,23.57
2023-02-09T13:40:29.951Z,22.83
2023-02-09T13:43:01.358Z,18.37
2023-02-09T13:45:29.028Z,22.83
2023-02-09T13:47:59.328Z,24.97
2023-02-09T13:50:33.492Z,22.73
2023-02-09T13:53:10.969Z,22.50
2023-02-09T13:55:45.648Z,17.93
2023-02-09T13:58:25.844Z,22.50
2023-02-09T14:00:58.132Z,26.23
2023-02-09T14:03:28.602Z,20.97
2023-02-09T14:06:11.273Z,19.43
2023-02-09T14:08:40.652Z,18.23
2023-02-09T14:11:43.134Z,22.13
2023-02-09T14:14:28.316Z,15.47
2023-02-09T14:17:25.886Z,22.37
2023-02-09T14:19:55.692Z,22.63
2023-02-09T14:22:34.129Z,24.23
2023-02-09T14:25:06.268Z,17.80
2023-02-09T14:27:34.893Z,22.10
2023-02-09T14:30:02.089Z,21.90
2023-02-09T14:32:38.323Z,20.73
2023-02-09T14:35:23.637Z,24.57
2023-02-09T14:37:55.704Z,22.43
2023-02-09T14:40:32.033Z,16.53
2023-02-09T14:43:03.728Z,17.73
2023-02-09T14:45:38.506Z,23.03
2023-02-09T14:48:22.246Z,17.10
2023-02-09T14:50:51.309Z,24.70
2023-02-09T14:53:19.503Z,22.77
2023-02-09T14:55:47.760Z,22.67
2023-02-09T14:58:41.315Z,23.53
2023-02-09T15:01:09.867Z,22.87
2023-02-09T15:03:37.170Z,19.77
2023-02-09T15:06:05.592Z,24.23
2023-02-09T15:08:36.097Z,21.50
2023-02-09T15:11:28.612Z,23.13
2023-02-09T15:14:03.815Z,23.37
2023-02-09T15:16:31.386Z,22.70
2023-02-09T15:18:59.038Z,23.67
2023-02-09T15:21:26.034Z,22.27
2023-02-09T15:23:53.322Z,24.23
2023-02-09T15:26:22.746Z,20.97
2023-02-09T15:28:50.128Z,25.03
2023-02-09T15:31:17.114Z,22.37
2023-02-09T15:33:44.436Z,23.77
2023-02-09T15:36:16.673Z,22.17
2023-02-09T15:38:43.957Z,23.57
2023-02-09T15:41:29.471Z,26.50
2023-02-09T15:44:15.505Z,27.40
2023-02-09T15:47:02.650Z,28.33
2023-02-09T15:49:31.068Z,23.70
2023-02-09T15:51:58.029Z,25.83
2023-02-09T15:54:31.756Z,29.63
2023-02-09T15:57:00.179Z,21.97
2023-02-09T15:59:27.437Z,22.67
2023-02-09T16:01:54.634Z,27.37
2023-02-09T16:04:21.876Z,28.57
2023-02-09T16:06:51.666Z,26.37
2023-02-09T16:09:26.669Z,30.20
2023-02-09T16:11:54.384Z,30.20
2023-02-09T16:14:24.110Z,23.00
2023-02-09T16:16:51.554Z,27.63
2023-02-09T16:19:19.763Z,28.77
2023-02-09T16:21:52.984Z,28.87
2023-02-09T16:24:30.869Z,27.87
2023-02-09T16:27:03.062Z,39.23
2023-02-09T16:29:30.441Z,34.10
2023-02-09T16:31:57.429Z,29.63
2023-02-09T16:34:24.669Z,36.67
2023-02-09T16:36:51.784Z,31.33
2023-02-09T16:39:21.338Z,27.10
2023-02-09T16:41:50.846Z,23.90
2023-02-09T16:44:20.136Z,27.50
2023-02-09T16:46:49.999Z,26.97
2023-02-09T16:49:39.458Z,26.30
2023-02-09T16:52:16.974Z,28.37
2023-02-09T16:54:57.072Z,30.07
2023-02-09T16:57:25.379Z,28.03
2023-02-09T16:59:53.728Z,39.93
2023-02-09T17:02:31.977Z,23.83
2023-02-09T17:05:00.192Z,24.27
2023-02-09T17:07:39.773Z,30.00
2023-02-09T17:10:17.989Z,24.53
2023-02-09T17:12:45.284Z,29.20
2023-02-09T17:15:28.595Z,27.03
2023-02-09T17:18:01.924Z,25.70
2023-02-09T17:20:36.666Z,27.27
2023-02-09T17:23:04.032Z,29.83
2023-02-09T17:25:31.454Z,27.40
2023-02-09T17:27:58.481Z,29.97
2023-02-09T17:30:25.881Z,26.97
2023-02-09T17:33:00.344Z,23.17
2023-02-09T17:35:52.915Z,27.47
2023-02-09T17:38:23.985Z,27.20
2023-02-09T17:40:52.605Z,32.23
2023-02-09T17:43:20.813Z,36.00
2023-02-09T17:45:50.805Z,31.67
2023-02-09T17:48:18.984Z,30.50
2023-02-09T17:50:48.684Z,31.70
2023-02-09T17:53:23.488Z,27.63
2023-02-09T17:55:51.616Z,30.60
2023-02-09T17:58:19.030Z,27.60
2023-02-09T18:00:46.534Z,26.27
2023-02-09T18:03:16.586Z,28.43
2023-02-09T18:05:44.597Z,30.27
2023-02-09T18:08:11.804Z,31.83
2023-02-09T18:10:39.202Z,31.60
2023-02-09T18:13:06.141Z,29.30
2023-02-09T18:15:37.440Z,30.20
2023-02-09T18:18:04.713Z,29.20
2023-02-09T18:20:33.293Z,28.20
2023-02-09T18:23:02.813Z,30.30
2023-02-09T18:25:37.955Z,36.97
2023-02-09T18:28:07.445Z,31.20
2023-02-09T18:30:37.908Z,31.70
2023-02-09T18:33:06.598Z,27.00
2023-02-09T18:35:36.668Z,32.20
2023-02-09T18:38:05.549Z,31.83
2023-02-09T18:40:33.811Z,32.37
2023-02-09T18:43:02.104Z,29.67
2023-02-09T18:45:30.605Z,31.33
2023-02-09T18:47:58.000Z,28.37
2023-02-09T18:50:31.672Z,30.57
2023-02-09T18:53:03.074Z,33.00
2023-02-09T18:55:32.698Z,33.23
2023-02-09T18:58:02.268Z,28.67
2023-02-09T19:00:30.032Z,36.97
2023-02-09T19:02:58.278Z,30.17
2023-02-09T19:05:29.303Z,39.13
2023-02-09T19:07:57.203Z,34.97
2023-02-09T19:10:25.120Z,36.67
2023-02-09T19:12:52.466Z,34.70
2023-02-09T19:15:22.458Z,35.00
2023-02-09T19:17:49.537Z,36.27
2023-02-09T19:20:20.476Z,36.80
2023-02-09T19:22:47.931Z,29.40
2023-02-09T19:25:15.657Z,39.60
2023-02-09T19:27:42.638Z,34.73
2023-02-09T19:30:14.212Z,33.97
2023-02-09T19:32:41.397Z,35.20
2023-02-09T19:35:09.013Z,36.03
2023-02-09T19:37:37.463Z,37.10
2023-02-09T19:40:11.137Z,32.97
2023-02-09T19:42:38.118Z,35.80
2023-02-09T19:45:05.716Z,43.23
2023-02-09T19:47:32.774Z,33.30
2023-02-09T19:50:00.148Z,39.97
2023-02-09T19:52:27.789Z,33.73
2023-02-09T19:54:57.376Z,36.70
2023-02-09T19:57:24.847Z,35.47
2023-02-09T19:59:53.332Z,36.10
2023-02-09T20:02:20.340Z,35.00
2023-02-09T20:04:47.626Z,39.17
2023-02-09T20:07:14.719Z,35.97
2023-02-09T20:09:42.154Z,34.70
2023-02-09T20:12:09.219Z,36.40
2023-02-09T20:14:36.519Z,40.77
2023-02-09T20:17:03.661Z,32.13
2023-02-09T20:19:31.094Z,37.87
2023-02-09T20:21:58.057Z,35.70
2023-02-09T20:24:25.332Z,33.00
2023-02-09T20:26:52.351Z,40.23
2023-02-09T20:29:22.157Z,33.60
2023-02-09T20:31:49.391Z,32.57
2023-02-09T20:34:16.868Z,37.07
2023-02-09T20:36:45.605Z,36.63
2023-02-09T20:39:16.185Z,34.67
2023-02-09T20:42:06.879Z,39.30
2023-02-09T20:44:53.441Z,46.07
2023-02-09T20:47:20.644Z,39.30
2023-02-09T20:49:48.010Z,28.67
2023-02-09T20:52:15.088Z,35.73
2023-02-09T20:54:42.335Z,38.03
2023-02-09T20:57:09.535Z,37.40
2023-02-09T20:59:37.614Z,38.87
2023-02-09T21:02:04.618Z,34.03
2023-02-09T21:04:32.109Z,35.77
2023-02-09T21:07:00.436Z,37.90
2023-02-09T21:09:28.363Z,37.23
2023-02-09T21:11:56.283Z,37.93
2023-02-09T21:14:27.845Z,34.80
2023-02-09T21:16:59.859Z,34.53
2023-02-09T21:19:27.116Z,33.63
2023-02-09T21:21:54.130Z,38.00
2023-02-09T21:24:21.608Z,37.33
2023-02-09T21:26:48.581Z,31.50
2023-02-09T21:29:15.920Z,34.17
2023-02-09T21:31:43.036Z,36.60
2023-02-09T21:34:13.678Z,41.27
2023-02-09T21:36:40.854Z,29.57
2023-02-09T21:39:08.216Z,37.93
2023-02-09T21:41:54.094Z,39.83
2023-02-09T21:44:21.391Z,35.37
2023-02-09T21:46:49.342Z,33.83
2023-02-09T21:49:16.699Z,33.87
2023-02-09T21:51:43.702Z,36.80
2023-02-09T21:54:15.667Z,36.37
2023-02-09T21:56:43.122Z,31.93
2023-02-09T21:59:10.964Z,30.87
2023-02-09T22:01:38.113Z,28.07
2023-02-09T22:04:05.486Z,30.27
2023-02-09T22:06:32.568Z,29.37
2023-02-09T22:09:02.933Z,31.90
2023-02-09T22:11:30.282Z,30.13
2023-02-09T22:13:57.499Z,29.47
2023-02-09T22:16:25.443Z,30.53
2023-02-09T22:18:53.096Z,34.57
2023-02-09T22:21:20.080Z,35.70
2023-02-09T22:23:47.316Z,31.13
2023-02-09T22:26:14.942Z,27.43
2023-02-09T22:28:42.709Z,31.97
2023-02-09T22:31:12.372Z,26.90
2023-02-09T22:33:39.748Z,30.13
2023-02-09T22:36:09.488Z,33.37
2023-02-09T22:38:37.173Z,31.20
2023-02-09T22:41:21.346Z,30.97
2023-02-09T22:43:52.947Z,25.27
2023-02-09T22:46:22.014Z,23.03
2023-02-09T22:48:57.724Z,30.13
2023-02-09T22:51:28.349Z,37.80
2023-02-09T22:53:56.817Z,29.30
2023-02-09T22:56:24.529Z,25.83
2023-02-09T22:58:55.913Z,25.10
2023-02-09T23:01:23.563Z,33.27
2023-02-09T23:03:51.021Z,28.60
2023-02-09T23:06:20.839Z,29.20
2023-02-09T23:08:48.220Z,26.03
2023-02-09T23:11:17.202Z,30.13
2023-02-09T23:13:44.930Z,25.37
2023-02-09T23:16:16.637Z,27.17
2023-02-09T23:18:57.717Z,29.03
2023-02-09T23:21:31.520Z,25.93
2023-02-09T23:23:58.911Z,26.13
2023-02-09T23:26:26.745Z,28.47
2023-02-09T23:28:59.185Z,23.63
2023-02-09T23:31:27.000Z,28.87
2023-02-09T23:33:54.922Z,24.60
2023-02-09T23:36:24.470Z,21.37
2023-02-09T23:39:00.078Z,23.03
2023-02-09T23:41:28.079Z,23.83
2023-02-09T23:43:56.031Z,30.60
2023-02-09T23:46:27.356Z,29.90
2023-02-09T23:48:56.259Z,28.90
2023-02-09T23:51:29.696Z,24.43
2023-02-09T23:54:02.526Z,29.90
2023-02-09T23:56:36.685Z,26.07
2023-02-09T23:59:06.175Z,24.87
